Time;durP1;ratioP1;P1;durP2;ratioP2;P2;SDS_P1;SDS_P2;PMS_P1;PMS_P2;Temp;Humidity;BMP_temperature;BMP_pressure;BME280_temperature;BME280_humidity;BME280_pressure;Samples;Min_cycle;Max_cycle;Signal;HPM_P1;HPM_P2
2023/04/13 00:00:53;;;;;;;;;;;;;;;9.80;100.00;97222.06;5061251;28;20638;-56
2023/04/13 00:03:18;;;;;;;;;;;;;;;9.88;100.00;97213.41;5032032;28;19925;-56
2023/04/13 00:05:44;;;;;;;;;;;;;;;9.97;100.00;97203.78;5031246;28;19942;-57
2023/04/13 00:08:10;;;;;;;;;;;;;;;9.93;100.00;97200.72;5040374;28;19969;-60
2023/04/13 00:10:35;;;;;;;;;;;;;;;9.73;100.00;97200.38;5045300;28;19920;-57
2023/04/13 00:13:01;;;;;;;;;;;;;;;9.69;100.00;97201.72;5072143;28;20267;-57
2023/04/13 00:15:26;;;;;;;;;;;;;;;9.77;100.00;97190.47;5018012;28;19975;-57
2023/04/13 00:17:54;;;;;;;;;;;;;;;9.78;100.00;97192.88;5063476;28;19928;-56
2023/04/13 00:20:22;;;;;;;;;;;;;;;9.68;100.00;97186.31;5046962;28;19925;-57
2023/04/13 00:22:47;;;;;;;;;;;;;;;9.67;100.00;97177.69;5052388;28;19928;-56
2023/04/13 00:25:13;;;;;;;;;;;;;;;9.65;100.00;97171.88;5045881;28;19921;-57
2023/04/13 00:27:42;;;;;;;;;;;;;;;9.67;100.00;97164.72;5039902;28;19920;-57
2023/04/13 00:30:08;;;;;;;;;;;;;;;9.31;100.00;97133.38;5045628;28;20098;-57
2023/04/13 00:32:34;;;;;;;;;;;;;;;9.44;100.00;97159.56;5065626;28;19916;-57
2023/04/13 00:34:59;;;;;;;;;;;;;;;9.35;100.00;97150.22;5043815;28;20465;-57
2023/04/13 00:37:28;;;;;;;;;;;;;;;9.38;100.00;97149.84;5030869;28;20083;-58
2023/04/13 00:39:53;;;;;;;;;;;;;;;9.28;100.00;97141.50;5045046;28;20015;-58
2023/04/13 00:42:19;;;;;;;;;;;;;;;9.25;100.00;97145.25;5043381;28;19965;-58
2023/04/13 00:44:44;;;;;;;;;;;;;;;9.29;100.00;97133.56;5026316;28;19924;-58
2023/04/13 00:47:11;;;;;;;;;;;;;;;9.33;100.00;97127.03;5042801;28;19924;-57
2023/04/13 00:49:36;;;;;;;;;;;;;;;9.20;100.00;97119.03;5084278;28;20330;-57
2023/04/13 00:52:01;;;;;;;;;;;;;;;9.21;100.00;97111.06;5062737;28;20439;-57
2023/04/13 00:54:28;;;;;;;;;;;;;;;9.18;100.00;97098.47;5066803;28;20377;-57
2023/04/13 00:56:53;;;;;;;;;;;;;;;9.20;100.00;97090.50;5059859;28;19924;-56
2023/04/13 00:59:19;;;;;;;;;;;;;;;9.21;100.00;97084.31;5075477;28;20162;-57
2023/04/13 01:01:45;;;;;;;;;;;;;;;9.23;100.00;97074.59;5060680;28;19920;-57
2023/04/13 01:04:17;;;;;;;;;;;;;;;9.29;100.00;97067.88;5065295;28;19927;-58
2023/04/13 01:06:43;;;;;;;;;;;;;;;9.35;100.00;97062.81;5058055;28;20124;-58
2023/04/13 01:09:14;;;;;;;;;;;;;;;9.38;100.00;97065.06;5060418;28;19920;-57
2023/04/13 01:11:44;;;;;;;;;;;;;;;9.31;100.00;97069.34;5059630;28;19924;-58
2023/04/13 01:14:10;;;;;;;;;;;;;;;9.26;100.00;97066.47;5046860;28;19962;-58
2023/04/13 01:16:41;;;;;;;;;;;;;;;9.26;100.00;97074.25;5082606;28;19919;-58
2023/04/13 01:19:08;;;;;;;;;;;;;;;9.27;100.00;97073.25;5050158;28;19924;-57
2023/04/13 01:21:34;;;;;;;;;;;;;;;9.21;100.00;97066.97;5047056;28;19920;-57
2023/04/13 01:24:02;;;;;;;;;;;;;;;9.28;100.00;97064.50;5044275;28;20665;-57
2023/04/13 01:26:46;;;;;;;;;;;;;;;9.21;100.00;97060.97;5083845;28;19920;-57
2023/04/13 01:29:13;;;;;;;;;;;;;;;9.27;100.00;97064.66;5065694;28;19920;-56
2023/04/13 01:31:39;;;;;;;;;;;;;;;8.98;100.00;97033.28;5068848;28;19920;-59
2023/04/13 01:34:04;;;;;;;;;;;;;;;9.25;100.00;97072.63;5083014;28;19926;-58
2023/04/13 01:36:32;;;;;;;;;;;;;;;9.28;100.00;97079.25;5071297;28;19923;-57
2023/04/13 01:38:57;;;;;;;;;;;;;;;9.27;100.00;97082.81;5051781;28;20396;-58
2023/04/13 01:41:24;;;;;;;;;;;;;;;9.33;100.00;97084.75;5050352;28;19920;-57
2023/04/13 01:43:50;;;;;;;;;;;;;;;9.25;100.00;97093.38;5070011;28;19928;-58
2023/04/13 01:46:18;;;;;;;;;;;;;;;9.33;100.00;97100.31;5066504;28;20274;-57
2023/04/13 01:48:48;;;;;;;;;;;;;;;9.37;100.00;97092.00;5071158;28;19966;-58
2023/04/13 01:51:18;;;;;;;;;;;;;;;9.35;100.00;97090.56;5052195;28;20460;-57
2023/04/13 01:53:44;;;;;;;;;;;;;;;9.46;100.00;97091.94;5070861;28;19920;-57
2023/04/13 01:56:11;;;;;;;;;;;;;;;9.39;100.00;97091.81;5065829;28;19962;-57
2023/04/13 01:58:37;;;;;;;;;;;;;;;9.38;100.00;97085.84;5059700;28;20359;-57
2023/04/13 02:01:06;;;;;;;;;;;;;;;9.51;100.00;97077.47;5067313;28;20007;-58
2023/04/13 02:03:32;;;;;;;;;;;;;;;9.59;100.00;97079.16;5084363;28;20398;-58
2023/04/13 02:05:57;;;;;;;;;;;;;;;9.61;100.00;97079.78;5067250;28;19931;-58
2023/04/13 02:08:23;;;;;;;;;;;;;;;9.61;100.00;97079.78;5070495;28;19917;-57
2023/04/13 02:10:49;;;;;;;;;;;;;;;9.67;100.00;97073.88;5069380;28;19930;-57
2023/04/13 02:13:14;;;;;;;;;;;;;;;9.72;100.00;97074.16;5101329;28;19934;-57
2023/04/13 02:15:43;;;;;;;;;;;;;;;9.79;100.00;97069.09;5049627;28;19924;-60
2023/04/13 02:18:09;;;;;;;;;;;;;;;9.72;100.00;97063.00;5051029;28;19921;-56
2023/04/13 02:20:44;;;;;;;;;;;;;;;9.76;100.00;97053.84;5066490;28;19928;-56
2023/04/13 02:23:10;;;;;;;;;;;;;;;9.75;100.00;97047.06;5082738;28;19939;-57
2023/04/13 02:25:36;;;;;;;;;;;;;;;9.79;100.00;97037.94;5051720;28;19920;-59
2023/04/13 02:28:01;;;;;;;;;;;;;;;9.81;100.00;97038.56;5052251;28;19935;-57
2023/04/13 02:30:27;;;;;;;;;;;;;;;9.87;100.00;97043.03;5050486;28;19998;-57
2023/04/13 02:32:52;;;;;;;;;;;;;;;9.79;100.00;97043.94;5066514;28;19970;-57
2023/04/13 02:35:19;;;;;;;;;;;;;;;9.76;100.00;97041.69;5063171;28;20476;-58
2023/04/13 02:37:44;;;;;;;;;;;;;;;9.83;100.00;97044.38;5050310;28;19920;-57
2023/04/13 02:40:10;;;;;;;;;;;;;;;9.87;100.00;97034.44;5068766;28;19950;-57
2023/04/13 02:42:36;;;;;;;;;;;;;;;9.84;100.00;97038.22;5079068;28;19967;-57
2023/04/13 02:45:03;;;;;;;;;;;;;;;9.84;100.00;97042.59;5058915;28;19920;-57
2023/04/13 02:47:28;;;;;;;;;;;;;;;9.79;100.00;97043.13;5025189;28;19952;-57
2023/04/13 02:49:53;;;;;;;;;;;;;;;9.65;100.00;97047.31;5056174;28;19956;-58
2023/04/13 02:52:20;;;;;;;;;;;;;;;9.60;100.00;97044.44;5030141;28;20385;-58
2023/04/13 02:54:45;;;;;;;;;;;;;;;9.59;100.00;97043.63;5030708;28;19916;-57
2023/04/13 02:57:12;;;;;;;;;;;;;;;9.71;100.00;97048.38;5043555;28;20002;-57
2023/04/13 02:59:38;;;;;;;;;;;;;;;9.61;100.00;97046.06;5047637;28;20255;-58
2023/04/13 03:02:03;;;;;;;;;;;;;;;9.74;100.00;97043.66;5068932;28;19920;-57
2023/04/13 03:04:32;;;;;;;;;;;;;;;9.80;100.00;97037.75;5047034;28;20371;-57
2023/04/13 03:06:57;;;;;;;;;;;;;;;9.83;100.00;97034.00;5043771;28;20325;-58
2023/04/13 03:09:24;;;;;;;;;;;;;;;9.86;100.00;97036.25;5079780;28;20379;-59
2023/04/13 03:11:49;;;;;;;;;;;;;;;9.84;100.00;97040.00;5034458;28;19925;-57
2023/04/13 03:14:20;;;;;;;;;;;;;;;9.82;100.00;97037.59;5026394;28;19921;-57
2023/04/13 03:16:48;;;;;;;;;;;;;;;9.70;100.00;97034.63;5078883;28;19917;-57
2023/04/13 03:19:15;;;;;;;;;;;;;;;9.72;100.00;97032.63;5049118;28;19920;-57
2023/04/13 03:21:41;;;;;;;;;;;;;;;9.72;100.00;97035.25;5044124;28;20939;-57
2023/04/13 03:24:07;;;;;;;;;;;;;;;9.74;100.00;97033.25;5048747;28;19962;-58
2023/04/13 03:26:32;;;;;;;;;;;;;;;9.76;100.00;97033.88;5064113;28;19959;-58
2023/04/13 03:28:58;;;;;;;;;;;;;;;9.72;100.00;97037.03;5047147;28;19935;-59
2023/04/13 03:31:24;;;;;;;;;;;;;;;9.77;100.00;97025.13;5044927;28;19974;-59
2023/04/13 03:33:49;;;;;;;;;;;;;;;9.78;100.00;97023.34;5025441;28;20445;-57
2023/04/13 03:36:15;;;;;;;;;;;;;;;9.69;100.00;97027.00;5056710;28;19927;-57
2023/04/13 03:38:40;;;;;;;;;;;;;;;9.75;100.00;97021.13;5061819;28;19966;-57
2023/04/13 03:41:05;;;;;;;;;;;;;;;9.76;100.00;97018.31;5076786;28;19956;-57
2023/04/13 03:43:33;;;;;;;;;;;;;;;9.71;100.00;97023.25;5063734;28;20693;-57
2023/04/13 03:45:58;;;;;;;;;;;;;;;9.69;100.00;97025.22;5042922;28;19946;-57
2023/04/13 03:48:24;;;;;;;;;;;;;;;9.63;100.00;97023.31;5049529;28;20367;-57
2023/04/13 03:50:49;;;;;;;;;;;;;;;9.71;100.00;97028.44;5047002;28;19938;-59
2023/04/13 03:53:14;;;;;;;;;;;;;;;9.72;100.00;97024.06;5030955;28;19920;-59
2023/04/13 03:55:42;;;;;;;;;;;;;;;9.76;100.00;97030.50;5079906;28;19931;-58
2023/04/13 03:58:07;;;;;;;;;;;;;;;9.77;100.00;97035.50;5050605;28;19924;-57
2023/04/13 04:00:32;;;;;;;;;;;;;;;9.80;100.00;97034.34;5065844;28;19920;-59
2023/04/13 04:02:58;;;;;;;;;;;;;;;9.74;100.00;97035.06;5047391;28;20295;-57
2023/04/13 04:05:23;;;;;;;;;;;;;;;9.72;100.00;97032.63;5036330;28;19917;-57
2023/04/13 04:07:48;;;;;;;;;;;;;;;9.76;100.00;97023.50;5046209;28;20751;-57
2023/04/13 04:10:16;;;;;;;;;;;;;;;9.72;100.00;97024.84;5046554;28;19928;-59
2023/04/13 04:12:41;;;;;;;;;;;;;;;9.71;100.00;97025.03;5030318;28;19927;-57
2023/04/13 04:15:07;;;;;;;;;;;;;;;9.60;100.00;97034.06;5048398;28;20853;-57
2023/04/13 04:17:32;;;;;;;;;;;;;;;9.61;100.00;97033.88;5029433;28;19920;-57
2023/04/13 04:19:58;;;;;;;;;;;;;;;9.62;100.00;97037.31;5030484;28;20011;-57
2023/04/13 04:22:28;;;;;;;;;;;;;;;9.54;100.00;97038.16;5029259;28;20054;-58
2023/04/13 04:24:54;;;;;;;;;;;;;;;9.48;100.00;97036.28;5038508;28;19921;-56
2023/04/13 04:27:20;;;;;;;;;;;;;;;9.42;100.00;97035.19;5015820;28;19955;-57
2023/04/13 04:29:48;;;;;;;;;;;;;;;9.50;100.00;97041.31;5063056;28;20460;-57
2023/04/13 04:32:14;;;;;;;;;;;;;;;9.56;100.00;97032.81;5069649;28;19920;-58
2023/04/13 04:34:39;;;;;;;;;;;;;;;9.57;100.00;97032.63;5015843;28;20338;-57
2023/04/13 04:37:05;;;;;;;;;;;;;;;9.54;100.00;97032.19;5023855;28;19920;-60
2023/04/13 04:39:34;;;;;;;;;;;;;;;9.47;100.00;97036.44;5039687;28;19932;-57
2023/04/13 04:42:02;;;;;;;;;;;;;;;9.53;100.00;97036.56;5079235;28;20364;-57
2023/04/13 04:44:29;;;;;;;;;;;;;;;9.52;100.00;97028.97;5044629;28;19936;-58
2023/04/13 04:46:55;;;;;;;;;;;;;;;9.56;100.00;97032.81;5059478;28;19978;-57
2023/04/13 04:49:20;;;;;;;;;;;;;;;9.57;100.00;97035.22;5063347;28;19916;-57
2023/04/13 04:51:46;;;;;;;;;;;;;;;9.55;100.00;97031.22;5064656;28;19927;-57
2023/04/13 04:54:11;;;;;;;;;;;;;;;9.49;100.00;97022.34;5086681;28;19977;-57
2023/04/13 04:56:36;;;;;;;;;;;;;;;9.21;100.00;97015.09;5047325;28;19967;-58
2023/04/13 04:59:02;;;;;;;;;;;;;;;9.17;100.00;97011.25;5094381;28;19927;-60
2023/04/13 05:01:28;;;;;;;;;;;;;;;9.19;100.00;97009.28;5067995;28;20374;-58
2023/04/13 05:03:53;;;;;;;;;;;;;;;9.05;100.00;97010.03;5062697;28;19920;-57
2023/04/13 05:06:19;;;;;;;;;;;;;;;9.09;100.00;97007.91;5087630;28;20012;-57
2023/04/13 05:08:46;;;;;;;;;;;;;;;9.02;100.00;97010.41;5049295;28;20268;-57
2023/04/13 05:11:14;;;;;;;;;;;;;;;9.01;100.00;97017.38;5058086;28;19973;-58
2023/04/13 05:13:40;;;;;;;;;;;;;;;9.04;100.00;97019.63;5061568;28;19977;-57
2023/04/13 05:16:09;;;;;;;;;;;;;;;8.99;100.00;97021.13;5062655;28;19925;-57
2023/04/13 05:18:42;;;;;;;;;;;;;;;8.94;100.00;97021.63;5066588;28;19950;-58
2023/04/13 05:21:09;;;;;;;;;;;;;;;8.90;100.00;97022.97;5064310;28;19964;-57
2023/04/13 05:23:35;;;;;;;;;;;;;;;8.91;100.00;97019.41;5060479;28;20015;-57
2023/04/13 05:26:00;;;;;;;;;;;;;;;8.95;100.00;97025.06;5056498;28;20458;-57
2023/04/13 05:28:26;;;;;;;;;;;;;;;9.00;100.00;97033.91;5067832;28;19923;-57
2023/04/13 05:30:53;;;;;;;;;;;;;;;8.95;100.00;97031.03;5065945;28;19927;-57
2023/04/13 05:33:19;;;;;;;;;;;;;;;8.90;100.00;97032.53;5066814;28;20139;-57
2023/04/13 05:35:44;;;;;;;;;;;;;;;8.89;100.00;97029.13;5040896;28;19959;-57
2023/04/13 05:38:12;;;;;;;;;;;;;;;8.90;100.00;97020.38;5086754;28;19924;-57
2023/04/13 05:40:38;;;;;;;;;;;;;;;8.89;100.00;97021.38;5048408;28;20034;-59
2023/04/13 05:43:03;;;;;;;;;;;;;;;8.88;100.00;97009.38;5084651;28;19920;-58
2023/04/13 05:45:29;;;;;;;;;;;;;;;8.91;100.00;97014.22;5050669;28;20490;-57
2023/04/13 05:47:54;;;;;;;;;;;;;;;8.84;100.00;97014.09;5066712;28;19970;-57
2023/04/13 05:50:19;;;;;;;;;;;;;;;8.74;100.00;97007.53;5062776;28;20022;-56
2023/04/13 05:52:44;;;;;;;;;;;;;;;8.66;100.00;97013.56;5055989;28;19920;-58
2023/04/13 05:55:10;;;;;;;;;;;;;;;8.64;100.00;97024.09;5079325;28;20277;-57
2023/04/13 05:57:35;;;;;;;;;;;;;;;8.64;100.00;97016.31;5051546;28;19920;-58
2023/04/13 06:00:01;;;;;;;;;;;;;;;8.61;100.00;97016.66;5084029;28;19927;-57
2023/04/13 06:02:26;;;;;;;;;;;;;;;8.72;100.00;97009.47;5076102;28;19928;-58
2023/04/13 06:04:55;;;;;;;;;;;;;;;8.72;100.00;97012.88;5050777;28;20018;-58
2023/04/13 06:07:20;;;;;;;;;;;;;;;8.71;100.00;97013.88;5078980;28;19974;-57
2023/04/13 06:09:46;;;;;;;;;;;;;;;8.76;100.00;97015.94;5050029;28;20024;-57
2023/04/13 06:12:12;;;;;;;;;;;;;;;8.70;100.00;97019.22;5087390;28;20022;-57
2023/04/13 06:14:40;;;;;;;;;;;;;;;8.65;100.00;97027.50;5065815;28;19951;-57
2023/04/13 06:17:05;;;;;;;;;;;;;;;8.69;100.00;97021.00;5101244;28;19995;-59
2023/04/13 06:19:31;;;;;;;;;;;;;;;8.68;100.00;97016.78;5049800;28;19931;-58
2023/04/13 06:21:57;;;;;;;;;;;;;;;8.65;100.00;97014.53;5044307;28;20486;-57
2023/04/13 06:24:22;;;;;;;;;;;;;;;8.74;100.00;97015.28;5066813;28;20436;-58
2023/04/13 06:26:51;;;;;;;;;;;;;;;8.71;100.00;97015.66;5054537;28;19920;-57
2023/04/13 06:29:16;;;;;;;;;;;;;;;8.76;100.00;97010.75;5081620;28;19986;-58
2023/04/13 06:31:41;;;;;;;;;;;;;;;8.70;100.00;97003.66;5068179;28;20551;-58
2023/04/13 06:34:07;;;;;;;;;;;;;;;8.81;100.00;97003.25;5069529;28;20254;-57
2023/04/13 06:36:32;;;;;;;;;;;;;;;8.74;100.00;96997.94;5067496;28;19920;-58
2023/04/13 06:38:57;;;;;;;;;;;;;;;8.67;100.00;96989.28;5064696;28;19920;-57
2023/04/13 06:41:23;;;;;;;;;;;;;;;8.71;100.00;96979.38;5075574;28;19981;-57
2023/04/13 06:43:48;;;;;;;;;;;;;;;8.53;100.00;96938.22;5066585;28;20006;-58
2023/04/13 06:46:13;;;;;;;;;;;;;;;8.81;100.00;96967.78;5093286;28;19967;-58
2023/04/13 06:48:38;;;;;;;;;;;;;;;8.74;100.00;96964.25;5100617;28;19924;-58
2023/04/13 06:51:06;;;;;;;;;;;;;;;8.84;100.00;96964.06;5058194;28;19935;-57
2023/04/13 06:53:31;;;;;;;;;;;;;;;8.85;100.00;96956.09;5082956;28;19931;-56
2023/04/13 06:55:57;;;;;;;;;;;;;;;8.83;100.00;96946.88;5064972;28;19925;-56
2023/04/13 06:58:22;;;;;;;;;;;;;;;8.94;100.00;96951.63;5046668;28;19955;-57
2023/04/13 07:00:47;;;;;;;;;;;;;;;8.98;100.00;96955.50;5064958;28;20380;-56
2023/04/13 07:03:13;;;;;;;;;;;;;;;8.96;100.00;96948.88;5063035;28;19969;-56
2023/04/13 07:05:38;;;;;;;;;;;;;;;9.04;100.00;96947.03;5067021;28;20007;-57
2023/04/13 07:08:05;;;;;;;;;;;;;;;8.98;100.00;96959.88;5061911;28;20382;-58
2023/04/13 07:10:30;;;;;;;;;;;;;;;8.88;100.00;96952.34;5070029;28;21301;-58
2023/04/13 07:12:55;;;;;;;;;;;;;;;8.90;100.00;96952.19;5062446;28;19920;-57
2023/04/13 07:15:20;;;;;;;;;;;;;;;8.96;100.00;96957.47;5041769;28;19960;-57
2023/04/13 07:17:46;;;;;;;;;;;;;;;8.87;100.00;96948.16;5067470;28;19923;-58
2023/04/13 07:20:11;;;;;;;;;;;;;;;8.88;100.00;96951.56;5084241;28;20342;-57
2023/04/13 07:22:37;;;;;;;;;;;;;;;8.83;100.00;96945.09;5088016;28;19966;-58
2023/04/13 07:25:02;;;;;;;;;;;;;;;8.95;100.00;96945.47;5067567;28;19920;-57
2023/04/13 07:27:31;;;;;;;;;;;;;;;9.08;100.00;96944.09;5062601;28;20291;-58
2023/04/13 07:29:57;;;;;;;;;;;;;;;9.17;100.00;96945.63;5054727;28;19920;-57
2023/04/13 07:32:27;;;;;;;;;;;;;;;9.31;100.00;96942.25;5063565;28;19920;-58
2023/04/13 07:34:52;;;;;;;;;;;;;;;9.42;100.00;96938.41;5074385;28;19963;-57
2023/04/13 07:37:17;;;;;;;;;;;;;;;9.53;100.00;96937.19;5058353;28;19963;-57
2023/04/13 07:39:43;;;;;;;;;;;;;;;9.66;100.00;96936.53;5061021;28;20379;-59
2023/04/13 07:42:08;;;;;;;;;;;;;;;9.71;100.00;96941.97;5067081;28;19959;-58
2023/04/13 07:44:33;;;;;;;;;;;;;;;9.79;100.00;96934.91;5078689;28;19958;-58
2023/04/13 07:46:58;;;;;;;;;;;;;;;9.91;100.00;96937.03;5049542;28;20315;-57
2023/04/13 07:49:26;;;;;;;;;;;;;;;10.00;100.00;96933.34;5059314;28;19963;-58
2023/04/13 07:51:52;;;;;;;;;;;;;;;10.06;100.00;96930.03;5063583;28;19920;-57
2023/04/13 07:54:17;;;;;;;;;;;;;;;10.05;100.00;96925.03;5057894;28;19920;-57
2023/04/13 07:56:44;;;;;;;;;;;;;;;10.10;100.00;96915.69;5049540;28;20466;-56
2023/04/13 07:59:10;;;;;;;;;;;;;;;10.10;100.00;96905.31;5082102;28;20317;-56
2023/04/13 08:01:35;;;;;;;;;;;;;;;10.14;100.00;96903.16;5077392;28;19920;-56
2023/04/13 08:04:02;;;;;;;;;;;;;;;10.15;99.56;96912.56;5057603;28;20357;-57
2023/04/13 08:06:28;;;;;;;;;;;;;;;10.35;97.09;96902.41;5064158;28;19924;-57
2023/04/13 08:08:53;;;;;;;;;;;;;;;10.37;93.00;96893.44;5080576;28;19942;-57
2023/04/13 08:11:18;;;;;;;;;;;;;;;10.46;91.91;96888.09;5072549;28;19931;-57
2023/04/13 08:13:46;;;;;;;;;;;;;;;10.37;92.55;96880.44;5061997;28;19920;-57
2023/04/13 08:16:12;;;;;;;;;;;;;;;10.22;97.64;96881.44;5061098;28;19979;-57
2023/04/13 08:18:38;;;;;;;;;;;;;;;10.16;89.83;96877.81;5049577;28;19926;-57
2023/04/13 08:21:10;;;;;;;;;;;;;;;10.31;83.41;96878.59;5075113;28;19920;-58
2023/04/13 08:23:38;;;;;;;;;;;;;;;10.39;80.05;96882.88;5057863;28;19927;-57
2023/04/13 08:26:04;;;;;;;;;;;;;;;10.43;79.31;96872.91;5067833;28;19920;-57
2023/04/13 08:28:30;;;;;;;;;;;;;;;10.43;79.13;96872.91;5078308;28;20057;-56
2023/04/13 08:30:55;;;;;;;;;;;;;;;10.43;77.17;96875.50;5074997;28;19924;-56
2023/04/13 08:33:20;;;;;;;;;;;;;;;10.52;76.45;96874.38;5060973;28;20379;-56
2023/04/13 08:35:46;;;;;;;;;;;;;;;11.18;72.97;96868.06;5065788;28;19927;-56
2023/04/13 08:38:12;;;;;;;;;;;;;;;13.03;65.06;96881.78;5064133;28;20003;-56
2023/04/13 08:40:38;;;;;;;;;;;;;;;14.11;59.23;96854.34;5084124;28;19920;-57
2023/04/13 08:43:03;;;;;;;;;;;;;;;12.83;62.50;96869.56;5072163;28;19927;-57
2023/04/13 08:45:29;;;;;;;;;;;;;;;12.25;64.38;96866.72;5081086;28;19928;-56
2023/04/13 08:47:55;;;;;;;;;;;;;;;12.11;62.71;96860.69;5077653;28;20003;-56
2023/04/13 08:50:21;;;;;;;;;;;;;;;11.81;65.06;96876.59;5082670;28;20370;-56
2023/04/13 08:52:46;;;;;;;;;;;;;;;12.23;50.43;96861.72;5065123;28;19928;-56
2023/04/13 08:55:14;;;;;;;;;;;;;;;12.27;57.94;96865.50;5082862;28;19920;-57
2023/04/13 08:57:39;;;;;;;;;;;;;;;12.29;53.20;96857.50;5062874;28;19924;-57
2023/04/13 09:00:10;;;;;;;;;;;;;;;12.34;50.61;96855.13;5083517;28;19943;-58
2023/04/13 09:02:35;;;;;;;;;;;;;;;12.34;49.61;96854.28;5044945;28;20013;-57
2023/04/13 09:05:14;;;;;;;;;;;;;;;12.34;52.73;96851.69;5071142;28;20012;-58
2023/04/13 09:07:40;;;;;;;;;;;;;;;12.33;50.59;96853.50;5065190;28;20273;-57
2023/04/13 09:10:07;;;;;;;;;;;;;;;12.42;51.45;96864.53;5065965;28;19920;-58
2023/04/13 09:12:33;;;;;;;;;;;;;;;12.44;47.54;96863.31;5078924;28;20327;-58
2023/04/13 09:14:59;;;;;;;;;;;;;;;12.48;44.02;96867.16;5080021;28;19920;-57
2023/04/13 09:17:25;;;;;;;;;;;;;;;12.58;40.19;96845.91;5082541;28;20607;-57
2023/04/13 09:19:52;;;;;;;;;;;;;;;12.56;44.33;96847.09;5080084;28;19927;-57
2023/04/13 09:22:17;;;;;;;;;;;;;;;12.69;42.39;96847.09;5062861;28;20039;-57
2023/04/13 09:24:42;;;;;;;;;;;;;;;12.79;45.04;96839.66;5079145;28;20007;-58
2023/04/13 09:27:18;;;;;;;;;;;;;;;12.87;42.74;96844.69;5080950;28;19950;-57
2023/04/13 09:29:53;;;;;;;;;;;;;;;12.95;43.14;96846.28;5084510;28;19927;-56
2023/04/13 09:32:22;;;;;;;;;;;;;;;13.04;44.94;96852.09;5081479;28;19924;-57
2023/04/13 09:34:57;;;;;;;;;;;;;;;12.82;45.32;96807.97;5063345;28;20393;-57
2023/04/13 09:37:24;;;;;;;;;;;;;;;13.02;41.65;96856.72;5084690;28;19920;-57
2023/04/13 09:39:50;;;;;;;;;;;;;;;13.04;40.72;96845.06;5085103;28;19935;-58
2023/04/13 09:42:17;;;;;;;;;;;;;;;12.98;44.26;96845.09;5067160;28;19955;-58
2023/04/13 09:44:42;;;;;;;;;;;;;;;13.01;41.40;96840.22;5093360;28;19920;-57
2023/04/13 09:47:07;;;;;;;;;;;;;;;13.11;40.31;96841.66;5080216;28;20624;-58
2023/04/13 09:49:39;;;;;;;;;;;;;;;13.22;39.22;96852.25;5083265;28;19927;-57
2023/04/13 09:52:25;;;;;;;;;;;;;;;13.27;36.83;96838.59;5080823;28;20371;-57
2023/04/13 09:54:52;;;;;;;;;;;;;;;13.32;39.52;96830.97;5082088;28;20358;-57
2023/04/13 09:57:27;;;;;;;;;;;;;;;13.35;40.73;96832.38;5088560;28;19927;-57
2023/04/13 09:59:53;;;;;;;;;;;;;;;13.36;40.46;96834.78;5050422;28;20374;-57
2023/04/13 10:02:18;;;;;;;;;;;;;;;13.38;41.03;96837.16;5087729;28;19927;-58
2023/04/13 10:04:44;;;;;;;;;;;;;;;13.45;39.52;96851.00;5065766;28;19920;-57
2023/04/13 10:07:12;;;;;;;;;;;;;;;13.39;38.90;96841.41;5088147;28;19924;-57
2023/04/13 10:09:37;;;;;;;;;;;;;;;13.33;37.91;96844.84;5089186;28;19928;-57
2023/04/13 10:12:03;;;;;;;;;;;;;;;13.39;39.27;96842.19;5062782;28;20665;-57
2023/04/13 10:14:30;;;;;;;;;;;;;;;13.33;40.53;96829.97;5087470;28;19920;-57
2023/04/13 10:17:03;;;;;;;;;;;;;;;13.44;37.09;96834.56;5056151;28;20335;-57
2023/04/13 10:19:28;;;;;;;;;;;;;;;13.62;32.92;96835.69;5088318;28;19926;-57
2023/04/13 10:21:54;;;;;;;;;;;;;;;13.74;34.07;96839.25;5059176;28;20317;-57
2023/04/13 10:24:19;;;;;;;;;;;;;;;13.76;34.35;96839.88;5066863;28;19924;-58
2023/04/13 10:26:44;;;;;;;;;;;;;;;13.75;36.01;96811.34;5068448;28;19984;-57
2023/04/13 10:29:12;;;;;;;;;;;;;;;13.75;33.93;96827.81;5051007;28;19947;-57
2023/04/13 10:31:38;;;;;;;;;;;;;;;13.65;37.24;96822.22;5067243;28;20358;-57
2023/04/13 10:34:05;;;;;;;;;;;;;;;13.64;34.07;96826.63;5081563;28;19981;-57
2023/04/13 10:36:38;;;;;;;;;;;;;;;13.69;36.36;96814.75;5053551;28;20281;-58
2023/04/13 10:39:03;;;;;;;;;;;;;;;13.65;38.14;96830.03;5086333;28;19924;-58
2023/04/13 10:41:29;;;;;;;;;;;;;;;13.75;33.85;96813.94;5047071;28;19920;-58
2023/04/13 10:44:03;;;;;;;;;;;;;;;13.70;36.46;96809.34;5069035;28;19981;-57
2023/04/13 10:46:28;;;;;;;;;;;;;;;13.63;38.19;96819.84;5081783;28;19924;-57
2023/04/13 10:48:57;;;;;;;;;;;;;;;13.79;34.31;96813.31;5051010;28;20003;-57
2023/04/13 10:51:23;;;;;;;;;;;;;;;13.83;30.36;96826.75;5068651;28;19931;-57
2023/04/13 10:53:48;;;;;;;;;;;;;;;13.90;33.71;96811.06;5082353;28;19920;-57
2023/04/13 10:56:14;;;;;;;;;;;;;;;13.87;37.10;96825.31;5050188;28;20389;-57
2023/04/13 10:58:39;;;;;;;;;;;;;;;13.85;31.33;96819.50;5062115;28;20449;-56
2023/04/13 11:01:05;;;;;;;;;;;;;;;13.89;31.07;96807.66;5061026;28;19986;-57
2023/04/13 11:03:30;;;;;;;;;;;;;;;13.65;34.28;96781.25;5067605;28;19975;-57
2023/04/13 11:05:59;;;;;;;;;;;;;;;13.86;30.56;96817.72;5067209;28;20293;-57
2023/04/13 11:08:26;;;;;;;;;;;;;;;13.97;33.08;96812.59;5062962;28;19921;-57
2023/04/13 11:10:55;;;;;;;;;;;;;;;13.96;32.70;96831.94;5066098;28;19924;-57
2023/04/13 11:13:24;;;;;;;;;;;;;;;13.97;32.98;96817.03;5066014;28;19916;-56
2023/04/13 11:15:58;;;;;;;;;;;;;;;13.96;31.27;96821.47;5059219;28;20011;-57
2023/04/13 11:18:25;;;;;;;;;;;;;;;14.07;32.70;96829.63;5062833;28;19920;-57
2023/04/13 11:20:50;;;;;;;;;;;;;;;13.97;33.94;96817.03;5067520;28;19924;-56
2023/04/13 11:23:17;;;;;;;;;;;;;;;13.91;33.02;96817.88;5083832;28;19927;-57
2023/04/13 11:25:53;;;;;;;;;;;;;;;13.79;30.11;96828.19;5066376;28;19919;-58
2023/04/13 11:28:19;;;;;;;;;;;;;;;13.74;34.10;96822.78;5085040;28;19996;-58
2023/04/13 11:30:55;;;;;;;;;;;;;;;13.75;33.29;96840.06;5065317;28;19925;-56
2023/04/13 11:33:26;;;;;;;;;;;;;;;13.69;32.90;96825.22;5053069;28;19924;-57
2023/04/13 11:35:55;;;;;;;;;;;;;;;13.69;32.93;96825.22;5066130;28;19927;-57
2023/04/13 11:38:21;;;;;;;;;;;;;;;13.66;34.45;96823.81;5067861;28;19924;-57
2023/04/13 11:40:47;;;;;;;;;;;;;;;13.60;33.22;96816.84;5059254;28;19924;-57
2023/04/13 11:43:13;;;;;;;;;;;;;;;13.69;32.34;96823.41;5087460;28;19919;-57
2023/04/13 11:45:39;;;;;;;;;;;;;;;13.70;32.47;96840.66;5078879;28;19924;-57
2023/04/13 11:48:07;;;;;;;;;;;;;;;13.74;32.67;96846.28;5061535;28;19978;-58
2023/04/13 11:50:34;;;;;;;;;;;;;;;13.71;30.80;96841.47;5080696;28;19921;-59
2023/04/13 11:53:00;;;;;;;;;;;;;;;13.81;31.71;96847.06;5063778;28;19931;-58
2023/04/13 11:55:27;;;;;;;;;;;;;;;13.75;33.24;96858.34;5081977;28;19920;-58
2023/04/13 11:57:53;;;;;;;;;;;;;;;13.79;33.39;96856.91;5066496;28;19920;-57
2023/04/13 12:00:26;;;;;;;;;;;;;;;13.60;31.85;96848.97;5045317;28;20544;-57
2023/04/13 12:02:52;;;;;;;;;;;;;;;13.51;30.02;96852.81;5079530;28;19924;-57
2023/04/13 12:05:23;;;;;;;;;;;;;;;13.48;30.11;96845.38;5085438;28;19924;-58
2023/04/13 12:07:48;;;;;;;;;;;;;;;13.57;29.88;96844.13;5076162;28;19962;-58
2023/04/13 12:10:27;;;;;;;;;;;;;;;13.63;32.76;96859.00;5050344;28;20350;-58
2023/04/13 12:12:56;;;;;;;;;;;;;;;13.57;31.68;96861.63;5084487;28;19927;-58
2023/04/13 12:15:22;;;;;;;;;;;;;;;13.67;29.79;96869.00;5065731;28;19920;-58
2023/04/13 12:17:51;;;;;;;;;;;;;;;13.67;32.44;96864.59;5058025;28;19926;-58
2023/04/13 12:20:17;;;;;;;;;;;;;;;13.70;33.79;96860.78;5081979;28;19993;-58
2023/04/13 12:22:42;;;;;;;;;;;;;;;13.78;28.60;96871.78;5084476;28;20523;-57
2023/04/13 12:25:13;;;;;;;;;;;;;;;13.57;28.40;96859.81;5062768;28;19927;-57
2023/04/13 12:27:39;;;;;;;;;;;;;;;13.59;30.25;96873.47;5063985;28;19959;-58
2023/04/13 12:30:08;;;;;;;;;;;;;;;13.48;29.71;96865.47;5075492;28;19927;-58
2023/04/13 12:32:38;;;;;;;;;;;;;;;13.54;27.63;96859.41;5064576;28;19932;-58
2023/04/13 12:35:03;;;;;;;;;;;;;;;13.47;28.37;96862.06;5063000;28;20009;-57
2023/04/13 12:37:28;;;;;;;;;;;;;;;13.33;30.94;96844.84;5083495;28;19973;-57
2023/04/13 12:39:54;;;;;;;;;;;;;;;13.26;29.27;96853.44;5080361;28;19920;-58
2023/04/13 12:42:21;;;;;;;;;;;;;;;13.25;29.37;96853.63;5074619;28;19956;-57